createdAt,value
2023-05-01T00:01:14.521Z,101337.94
2023-05-01T00:03:44.638Z,101348.75
2023-05-01T00:06:14.589Z,101340.56
2023-05-01T00:08:47.815Z,101331.06
2023-05-01T00:11:43.563Z,101335.66
2023-05-01T00:14:11.718Z,101331.19
2023-05-01T00:16:48.103Z,101335.97
2023-05-01T00:19:22.334Z,101326.13
2023-05-01T00:21:56.158Z,101325.66
2023-05-01T00:24:28.801Z,101315.06
2023-05-01T00:26:58.637Z,101310.03
2023-05-01T00:29:48.306Z,101308.88
2023-05-01T00:32:22.116Z,101308.59
2023-05-01T00:34:49.342Z,101306.28
2023-05-01T00:37:24.661Z,101301.81
2023-05-01T00:40:14.892Z,101303.22
2023-05-01T00:42:52.131Z,101298.09
2023-05-01T00:45:19.227Z,101297.63
2023-05-01T00:47:49.345Z,101298.72
2023-05-01T00:50:20.171Z,101298.16
2023-05-01T00:52:49.534Z,101297.19
2023-05-01T00:55:17.130Z,101286.13
2023-05-01T00:57:44.208Z,101299.00
2023-05-01T01:00:12.633Z,101281.16
2023-05-01T01:02:50.717Z,101283.91
2023-05-01T01:05:28.295Z,101289.00
2023-05-01T01:08:27.301Z,101294.34
2023-05-01T01:11:43.968Z,101282.69
2023-05-01T01:14:44.647Z,101266.28
2023-05-01T01:17:43.974Z,101268.56
2023-05-01T01:20:59.018Z,101270.41
2023-05-01T01:24:18.699Z,101270.88
2023-05-01T01:27:28.413Z,101269.50
2023-05-01T01:30:29.407Z,101266.38
2023-05-01T01:33:45.463Z,101266.34
2023-05-01T01:36:34.875Z,101258.81
2023-05-01T01:39:24.459Z,101268.34
2023-05-01T01:42:10.092Z,101259.13
2023-05-01T01:44:57.228Z,101269.16
2023-05-01T01:47:33.517Z,101262.28
2023-05-01T01:50:12.557Z,101255.34
2023-05-01T01:52:50.081Z,101253.16
2023-05-01T01:55:22.917Z,101255.63
2023-05-01T01:57:59.155Z,101256.03
2023-05-01T02:00:29.600Z,101250.22
2023-05-01T02:03:10.569Z,101243.66
2023-05-01T02:05:50.000Z,101251.91
2023-05-01T02:08:23.587Z,101240.22
2023-05-01T02:11:02.053Z,101239.69
2023-05-01T02:13:35.254Z,101238.00
2023-05-01T02:19:14.412Z,101234.13
2023-05-01T02:21:50.061Z,101226.31
2023-05-01T02:24:24.062Z,101222.25
2023-05-01T02:27:17.628Z,101216.34
2023-05-01T02:29:52.062Z,101220.88
2023-05-01T02:32:19.947Z,101219.78
2023-05-01T02:34:59.022Z,101213.09
2023-05-01T02:37:26.364Z,101211.16
2023-05-01T02:39:59.553Z,101215.75
2023-05-01T02:42:29.577Z,101209.56
2023-05-01T02:45:26.980Z,101202.94
2023-05-01T02:48:06.477Z,101192.72
2023-05-01T02:50:36.368Z,101202.84
2023-05-01T02:53:04.038Z,101200.72
2023-05-01T02:55:31.001Z,101197.75
2023-05-01T02:58:03.565Z,101196.81
2023-05-01T03:00:30.472Z,101184.31
2023-05-01T03:03:01.234Z,101188.59
2023-05-01T03:05:28.085Z,101180.69
2023-05-01T03:08:04.312Z,101178.41
2023-05-01T03:10:31.349Z,101166.22
2023-05-01T03:13:01.543Z,101171.16
2023-05-01T03:15:28.289Z,101170.78
2023-05-01T03:18:01.598Z,101171.34
2023-05-01T03:20:29.171Z,101161.09
2023-05-01T03:23:04.205Z,101159.81
2023-05-01T03:25:31.068Z,101163.63
2023-05-01T03:28:00.292Z,101156.81
2023-05-01T03:30:27.253Z,101155.19
2023-05-01T03:33:03.454Z,101149.69
2023-05-01T03:35:32.913Z,101157.69
2023-05-01T03:38:06.209Z,101150.19
2023-05-01T03:40:35.944Z,101150.50
2023-05-01T03:43:11.786Z,101154.88
2023-05-01T03:45:46.390Z,101153.84
2023-05-01T03:48:15.777Z,101153.84
2023-05-01T03:50:43.248Z,101146.97
2023-05-01T03:53:12.957Z,101136.78
2023-05-01T03:55:44.141Z,101143.00
2023-05-01T03:58:13.854Z,101146.22
2023-05-01T04:00:45.644Z,101135.34
2023-05-01T04:03:13.003Z,101135.31
2023-05-01T04:05:46.095Z,101134.13
2023-05-01T04:08:13.488Z,101130.88
2023-05-01T04:10:49.482Z,101127.66
2023-05-01T04:13:18.611Z,101119.03
2023-05-01T04:15:50.289Z,101119.25
2023-05-01T04:18:20.391Z,101129.97
2023-05-01T04:20:50.046Z,101121.44
2023-05-01T04:23:27.641Z,101127.75
2023-05-01T04:25:58.165Z,101122.75
2023-05-01T04:28:25.338Z,101115.69
2023-05-01T04:30:56.458Z,101123.38
2023-05-01T04:33:23.560Z,101105.31
2023-05-01T04:38:33.739Z,101107.75
2023-05-01T04:41:04.724Z,101108.66
2023-05-01T04:43:31.544Z,101100.63
2023-05-01T04:46:02.618Z,101107.31
2023-05-01T04:48:29.646Z,101094.94
2023-05-01T04:51:16.202Z,101093.56
2023-05-01T04:53:43.090Z,101098.19
2023-05-01T04:59:01.832Z,101096.56
2023-05-01T05:01:29.079Z,101092.34
2023-05-01T05:03:56.449Z,101086.34
2023-05-01T05:06:26.305Z,101095.03
2023-05-01T05:08:57.988Z,101094.78
2023-05-01T05:11:25.296Z,101088.84
2023-05-01T05:13:53.398Z,101088.94
2023-05-01T05:16:24.503Z,101094.78
2023-05-01T05:19:04.490Z,101089.94
2023-05-01T05:21:31.769Z,101081.88
2023-05-01T05:23:58.567Z,101087.25
2023-05-01T05:26:28.438Z,101092.25
2023-05-01T05:28:58.460Z,101095.03
2023-05-01T05:31:30.821Z,101086.34
2023-05-01T05:33:57.546Z,101093.66
2023-05-01T05:36:25.213Z,101089.81
2023-05-01T05:38:52.037Z,101080.16
2023-05-01T05:41:21.726Z,101085.22
2023-05-01T05:43:48.492Z,101085.13
2023-05-01T05:46:18.017Z,101085.28
2023-05-01T05:48:45.027Z,101083.03
2023-05-01T05:51:22.336Z,101081.00
2023-05-01T05:54:14.952Z,101088.00
2023-05-01T05:56:44.577Z,101079.56
2023-05-01T05:59:15.944Z,101069.28
2023-05-01T06:01:59.055Z,101071.75
2023-05-01T06:04:28.724Z,101075.44
2023-05-01T06:06:59.655Z,101083.56
2023-05-01T06:09:26.852Z,101076.19
2023-05-01T06:11:58.399Z,101071.09
2023-05-01T06:14:25.973Z,101071.78
2023-05-01T06:16:58.909Z,101078.47
2023-05-01T06:19:28.774Z,101079.56
2023-05-01T06:21:58.689Z,101076.06
2023-05-01T06:24:25.559Z,101070.06
2023-05-01T06:27:01.362Z,101080.59
2023-05-01T06:29:31.076Z,101066.72
2023-05-01T06:31:58.233Z,101056.34
2023-05-01T06:34:25.072Z,101057.63
2023-05-01T06:36:51.853Z,101065.97
2023-05-01T06:39:21.571Z,101062.63
2023-05-01T06:41:51.141Z,101066.50
2023-05-01T06:44:21.494Z,101063.88
2023-05-01T06:46:48.316Z,101044.16
2023-05-01T06:49:15.083Z,101053.59
2023-05-01T06:51:56.086Z,101050.31
2023-05-01T06:54:22.768Z,101043.63
2023-05-01T06:56:49.429Z,101049.34
2023-05-01T06:59:28.389Z,101041.44
2023-05-01T07:02:01.221Z,101044.53
2023-05-01T07:04:32.201Z,101042.09
2023-05-01T07:06:59.218Z,101040.34
2023-05-01T07:09:25.946Z,101032.94
2023-05-01T07:11:55.061Z,101024.72
2023-05-01T07:14:21.908Z,101026.81
2023-05-01T07:16:48.713Z,101024.81
2023-05-01T07:19:15.518Z,101022.44
2023-05-01T07:21:47.954Z,101012.44
2023-05-01T07:24:14.652Z,101012.84
2023-05-01T07:26:48.455Z,101017.91
2023-05-01T07:29:18.508Z,101017.91
2023-05-01T07:31:55.756Z,101012.28
2023-05-01T07:34:28.535Z,101008.41
2023-05-01T07:37:04.083Z,101012.97
2023-05-01T07:39:31.416Z,101014.78
2023-05-01T07:41:58.615Z,101009.78
2023-05-01T07:44:42.750Z,101008.44
2023-05-01T07:47:12.471Z,101004.56
2023-05-01T07:49:48.473Z,101002.88
2023-05-01T07:52:18.351Z,101008.19
2023-05-01T07:54:51.289Z,101002.34
2023-05-01T07:57:21.650Z,100991.00
2023-05-01T07:59:58.213Z,100989.72
2023-05-01T08:02:28.294Z,100996.47
2023-05-01T08:05:02.848Z,100993.06
2023-05-01T08:07:29.767Z,100975.47
2023-05-01T08:09:59.386Z,100985.59
2023-05-01T08:12:31.194Z,100984.53
2023-05-01T08:15:00.970Z,100987.56
2023-05-01T08:17:33.208Z,100987.78
2023-05-01T08:20:08.603Z,100978.28
2023-05-01T08:22:36.067Z,100971.72
2023-05-01T08:25:02.865Z,100974.31
2023-05-01T08:27:32.690Z,100973.91
2023-05-01T08:30:01.596Z,100963.97
2023-05-01T08:32:28.528Z,100973.50
2023-05-01T08:35:01.163Z,100968.84
2023-05-01T08:37:28.073Z,100968.41
2023-05-01T08:40:00.270Z,100972.75
2023-05-01T08:42:31.027Z,100962.13
2023-05-01T08:45:01.521Z,100968.47
2023-05-01T08:47:30.559Z,100959.13
2023-05-01T08:50:04.779Z,100955.75
2023-05-01T08:52:33.163Z,100957.78
2023-05-01T08:55:02.609Z,100956.63
2023-05-01T08:57:33.129Z,100958.09
2023-05-01T09:00:04.617Z,100944.22
2023-05-01T09:02:40.681Z,100957.19
2023-05-01T09:05:18.797Z,100947.19
2023-05-01T09:07:49.894Z,100952.78
2023-05-01T09:10:20.592Z,100946.84
2023-05-01T09:12:59.260Z,100949.63
2023-05-01T09:15:32.187Z,100948.13
2023-05-01T09:18:13.275Z,100943.50
2023-05-01T09:20:51.126Z,100925.63
2023-05-01T09:23:19.424Z,100936.56
2023-05-01T09:25:47.216Z,100932.06
2023-05-01T09:28:19.981Z,100933.81
2023-05-01T09:30:46.657Z,100929.25
2023-05-01T09:33:16.958Z,100929.66
2023-05-01T09:36:01.322Z,100933.38
2023-05-01T09:38:31.794Z,100933.16
2023-05-01T09:41:12.336Z,100917.97
2023-05-01T09:43:43.358Z,100920.44
2023-05-01T09:46:17.803Z,100917.72
2023-05-01T09:49:01.172Z,100911.66
2023-05-01T09:51:37.751Z,100917.78
2023-05-01T09:54:16.973Z,100908.03
2023-05-01T09:56:49.211Z,100909.53
2023-05-01T09:59:22.562Z,100904.28
2023-05-01T10:01:50.389Z,100910.22
2023-05-01T10:04:18.174Z,100907.16
2023-05-01T10:06:45.224Z,100908.16
2023-05-01T10:09:33.773Z,100889.28
2023-05-01T10:14:57.933Z,100896.94
2023-05-01T10:17:36.543Z,100883.56
2023-05-01T10:20:08.171Z,100889.56
2023-05-01T10:23:03.723Z,100882.84
2023-05-01T10:25:33.988Z,100885.94
2023-05-01T10:28:07.474Z,100881.91
2023-05-01T10:30:36.271Z,100873.78
2023-05-01T10:33:05.376Z,100868.50
2023-05-01T10:35:51.989Z,100866.00
2023-05-01T10:38:37.709Z,100861.16
2023-05-01T10:41:18.546Z,100861.97
2023-05-01T10:44:25.571Z,100864.31
2023-05-01T10:46:58.941Z,100859.00
2023-05-01T10:49:25.847Z,100847.84
2023-05-01T10:52:03.671Z,100841.91
2023-05-01T10:54:34.109Z,100833.56
2023-05-01T10:57:06.605Z,100837.97
2023-05-01T11:00:16.955Z,100838.88
2023-05-01T11:02:43.792Z,100826.59
2023-05-01T11:05:10.970Z,100823.44
2023-05-01T11:08:37.499Z,100826.00
2023-05-01T11:11:27.528Z,100831.50
2023-05-01T11:14:16.748Z,100827.47
2023-05-01T11:16:49.477Z,100818.19
2023-05-01T11:19:22.447Z,100818.22
2023-05-01T11:21:56.388Z,100811.31
2023-05-01T11:24:35.583Z,100807.00
2023-05-01T11:27:16.546Z,100812.47
2023-05-01T11:29:48.337Z,100809.13
2023-05-01T11:32:30.398Z,100813.41
2023-05-01T11:35:00.748Z,100804.72
2023-05-01T11:37:44.942Z,100804.66
2023-05-01T11:40:30.773Z,100804.56
2023-05-01T11:43:03.436Z,100796.00
2023-05-01T11:45:32.164Z,100793.97
2023-05-01T11:48:04.169Z,100791.44
2023-05-01T11:50:52.141Z,100787.09
2023-05-01T11:53:21.804Z,100779.78
2023-05-01T11:55:49.724Z,100772.38
2023-05-01T11:58:17.065Z,100772.56
2023-05-01T12:00:50.965Z,100762.03
2023-05-01T12:03:20.803Z,100767.94
2023-05-01T12:05:49.364Z,100753.81
2023-05-01T12:08:23.294Z,100757.97
2023-05-01T12:11:00.650Z,100754.94
2023-05-01T12:13:27.769Z,100758.41
2023-05-01T12:16:04.530Z,100749.00
2023-05-01T12:18:31.501Z,100754.66
2023-05-01T12:21:00.016Z,100748.91
2023-05-01T12:23:47.746Z,100738.06
2023-05-01T12:26:25.720Z,100740.66
2023-05-01T12:29:03.874Z,100736.72
2023-05-01T12:31:50.539Z,100732.53
2023-05-01T12:34:32.381Z,100730.34
2023-05-01T12:36:59.755Z,100730.91
2023-05-01T12:39:38.677Z,100730.28
2023-05-01T12:42:14.859Z,100727.84
2023-05-01T12:44:44.996Z,100719.91
2023-05-01T12:47:13.221Z,100721.38
2023-05-01T12:49:43.158Z,100718.56
2023-05-01T12:52:12.375Z,100721.06
2023-05-01T12:54:45.498Z,100711.94
2023-05-01T12:57:19.014Z,100699.09
2023-05-01T12:59:47.387Z,100701.59
2023-05-01T13:02:31.959Z,100696.50
2023-05-01T13:05:12.030Z,100707.03
2023-05-01T13:07:41.897Z,100710.63
2023-05-01T13:10:09.750Z,100701.69
2023-05-01T13:12:47.746Z,100695.00
2023-05-01T13:15:22.178Z,100688.91
2023-05-01T13:17:54.513Z,100696.78
2023-05-01T13:20:28.402Z,100687.66
2023-05-01T13:22:55.356Z,100689.06
2023-05-01T13:25:23.356Z,100676.41
2023-05-01T13:28:04.902Z,100677.50
2023-05-01T13:30:34.602Z,100674.53
2023-05-01T13:33:01.890Z,100678.72
2023-05-01T13:35:31.757Z,100678.78
2023-05-01T13:37:58.512Z,100667.63
2023-05-01T13:40:33.376Z,100660.91
2023-05-01T13:43:00.215Z,100657.34
2023-05-01T13:45:27.006Z,100666.38
2023-05-01T13:47:59.902Z,100664.91
2023-05-01T13:50:27.664Z,100661.53
2023-05-01T13:53:01.298Z,100655.94
2023-05-01T13:55:28.718Z,100652.81
2023-05-01T13:58:07.957Z,100661.59
2023-05-01T14:00:35.223Z,100650.63
2023-05-01T14:03:06.000Z,100656.13
2023-05-01T14:05:47.432Z,100663.13
2023-05-01T14:08:28.480Z,100654.38
2023-05-01T14:10:59.107Z,100657.09
2023-05-01T14:13:30.788Z,100645.34
2023-05-01T14:15:57.441Z,100651.16
2023-05-01T14:18:24.472Z,100654.84
2023-05-01T14:20:51.357Z,100652.59
2023-05-01T14:23:22.369Z,100659.44
2023-05-01T14:25:54.609Z,100651.63
2023-05-01T14:28:24.622Z,100648.31
2023-05-01T14:30:55.090Z,100647.78
2023-05-01T14:33:27.266Z,100644.06
2023-05-01T14:35:57.057Z,100656.38
2023-05-01T14:38:37.650Z,100641.19
2023-05-01T14:41:04.721Z,100645.16
2023-05-01T14:43:33.816Z,100633.91
2023-05-01T14:46:00.843Z,100637.13
2023-05-01T14:48:37.097Z,100640.47
2023-05-01T14:51:27.715Z,100624.16
2023-05-01T14:54:01.690Z,100633.91
2023-05-01T14:56:28.665Z,100634.31
2023-05-01T14:58:55.678Z,100636.00
2023-05-01T15:01:30.333Z,100629.41
2023-05-01T15:06:36.021Z,100621.72
2023-05-01T15:09:09.980Z,100623.66
2023-05-01T15:11:36.801Z,100616.13
2023-05-01T15:14:08.420Z,100624.75
2023-05-01T15:16:35.516Z,100614.72
2023-05-01T15:19:02.236Z,100607.47
2023-05-01T15:21:30.513Z,100612.34
2023-05-01T15:23:59.139Z,100618.59
2023-05-01T15:26:25.937Z,100616.22
2023-05-01T15:28:55.530Z,100608.72
2023-05-01T15:31:28.101Z,100608.66
2023-05-01T15:33:58.092Z,100600.34
2023-05-01T15:36:27.683Z,100601.06
2023-05-01T15:38:57.484Z,100607.44
2023-05-01T15:41:41.252Z,100605.00
2023-05-01T15:44:10.864Z,100607.50
2023-05-01T15:46:38.329Z,100593.97
2023-05-01T15:49:16.691Z,100605.19
2023-05-01T15:51:49.202Z,100600.19
2023-05-01T15:54:21.581Z,100595.56
2023-05-01T15:56:48.379Z,100594.31
2023-05-01T15:59:15.096Z,100589.03
2023-05-01T16:01:47.480Z,100598.22
2023-05-01T16:04:17.392Z,100586.97
2023-05-01T16:06:49.503Z,100589.50
2023-05-01T16:09:16.463Z,100578.13
2023-05-01T16:11:49.735Z,100579.44
2023-05-01T16:14:17.707Z,100576.75
2023-05-01T16:16:47.866Z,100583.78
2023-05-01T16:19:16.860Z,100581.44
2023-05-01T16:21:48.536Z,100583.78
2023-05-01T16:24:15.431Z,100575.19
2023-05-01T16:26:45.414Z,100584.84
2023-05-01T16:29:12.591Z,100583.81
2023-05-01T16:31:50.781Z,100581.72
2023-05-01T16:34:28.726Z,100579.63
2023-05-01T16:36:56.664Z,100587.94
2023-05-01T16:39:26.155Z,100588.63
2023-05-01T16:41:57.229Z,100589.34
2023-05-01T16:44:31.310Z,100577.53
2023-05-01T16:47:03.329Z,100587.31
2023-05-01T16:49:30.347Z,100592.09
2023-05-01T16:51:58.526Z,100597.00
2023-05-01T16:54:32.749Z,100579.81
2023-05-01T16:56:59.744Z,100588.44
2023-05-01T16:59:30.368Z,100590.53
2023-05-01T17:02:01.596Z,100584.41
2023-05-01T17:04:32.808Z,100592.19
2023-05-01T17:07:08.864Z,100592.03
2023-05-01T17:09:35.930Z,100588.38
2023-05-01T17:12:03.632Z,100584.09
2023-05-01T17:14:31.072Z,100587.84
2023-05-01T17:16:59.373Z,100586.44
2023-05-01T17:19:34.663Z,100589.09
2023-05-01T17:22:03.279Z,100591.81
2023-05-01T17:24:30.759Z,100598.38
2023-05-01T17:27:00.358Z,100585.41
2023-05-01T17:29:33.362Z,100593.78
2023-05-01T17:32:00.239Z,100600.13
2023-05-01T17:34:30.288Z,100595.34
2023-05-01T17:36:58.080Z,100600.84
2023-05-01T17:39:31.536Z,100593.34
2023-05-01T17:42:12.591Z,100595.22
2023-05-01T17:47:20.165Z,100593.22
2023-05-01T17:49:46.861Z,100590.50
2023-05-01T17:52:16.738Z,100593.44
2023-05-01T17:54:52.042Z,100600.53
2023-05-01T17:57:18.818Z,100598.25
2023-05-01T17:59:45.930Z,100605.31
2023-05-01T18:02:12.839Z,100593.03
2023-05-01T18:04:42.113Z,100588.34
2023-05-01T18:07:08.876Z,100610.28
2023-05-01T18:09:38.552Z,100606.44
2023-05-01T18:12:05.969Z,100603.16
2023-05-01T18:14:32.951Z,100600.00
2023-05-01T18:17:00.320Z,100608.13
2023-05-01T18:19:32.069Z,100611.03
2023-05-01T18:21:59.215Z,100602.47
2023-05-01T18:24:25.896Z,100609.28
2023-05-01T18:26:55.848Z,100603.34
2023-05-01T18:29:22.813Z,100601.34
2023-05-01T18:31:58.844Z,100608.47
2023-05-01T18:34:31.984Z,100605.44
2023-05-01T18:36:58.781Z,100610.50
2023-05-01T18:39:25.743Z,100610.00
2023-05-01T18:41:57.599Z,100606.91
2023-05-01T18:44:24.552Z,100614.13
2023-05-01T18:46:51.490Z,100614.94
2023-05-01T18:49:25.284Z,100617.09
2023-05-01T18:51:58.378Z,100612.81
2023-05-01T18:54:25.106Z,100607.66
2023-05-01T18:56:51.978Z,100615.00
2023-05-01T18:59:18.708Z,100613.63
2023-05-01T19:01:47.927Z,100612.50
2023-05-01T19:04:14.684Z,100617.31
2023-05-01T19:06:44.283Z,100616.75
2023-05-01T19:09:11.037Z,100620.75
2023-05-01T19:11:39.093Z,100622.06
2023-05-01T19:14:05.849Z,100622.22
2023-05-01T19:16:32.774Z,100614.22
2023-05-01T19:19:06.119Z,100632.56
2023-05-01T19:21:33.510Z,100628.56
2023-05-01T19:24:00.648Z,100638.72
2023-05-01T19:26:32.000Z,100646.13
2023-05-01T19:28:58.775Z,100650.72
2023-05-01T19:31:25.814Z,100640.47
2023-05-01T19:33:58.959Z,100639.56
2023-05-01T19:36:26.547Z,100641.06
2023-05-01T19:38:57.883Z,100652.50
2023-05-01T19:41:24.572Z,100648.41
2023-05-01T19:43:51.378Z,100658.94
2023-05-01T19:46:18.359Z,100642.97
2023-05-01T19:48:45.044Z,100649.09
2023-05-01T19:51:17.891Z,100645.31
2023-05-01T19:53:49.687Z,100644.41
2023-05-01T19:56:16.348Z,100651.63
2023-05-01T19:58:43.467Z,100653.94
2023-05-01T20:01:15.459Z,100642.88
2023-05-01T20:03:42.235Z,100659.88
2023-05-01T20:06:12.014Z,100650.94
2023-05-01T20:08:38.878Z,100656.72
2023-05-01T20:11:11.473Z,100656.59
2023-05-01T20:13:45.942Z,100658.16
2023-05-01T20:16:12.778Z,100660.16
2023-05-01T20:18:42.110Z,100654.97
2023-05-01T20:21:13.291Z,100650.34
2023-05-01T20:23:43.311Z,100653.75
2023-05-01T20:26:10.126Z,100657.44
2023-05-01T20:28:36.768Z,100649.84
2023-05-01T20:31:06.207Z,100652.75
2023-05-01T20:33:38.865Z,100650.09
2023-05-01T20:36:07.009Z,100663.59
2023-05-01T20:38:45.345Z,100666.78
2023-05-01T20:41:15.030Z,100665.34
2023-05-01T20:43:45.165Z,100667.91
2023-05-01T20:46:11.923Z,100658.72
2023-05-01T20:48:38.753Z,100665.25
2023-05-01T20:51:16.179Z,100669.81
2023-05-01T20:53:42.876Z,100661.19
2023-05-01T20:56:20.522Z,100661.34
2023-05-01T20:58:47.279Z,100658.78
2023-05-01T21:01:13.904Z,100665.59
2023-05-01T21:03:43.877Z,100668.28
2023-05-01T21:06:15.954Z,100664.72
2023-05-01T21:08:43.389Z,100654.09
2023-05-01T21:11:16.452Z,100656.06
2023-05-01T21:13:44.656Z,100656.91
2023-05-01T21:16:15.897Z,100668.69
2023-05-01T21:18:42.794Z,100669.94
2023-05-01T21:21:12.062Z,100667.53
2023-05-01T21:23:48.913Z,100664.41
2023-05-01T21:26:16.361Z,100660.88
2023-05-01T21:28:46.683Z,100677.13
2023-05-01T21:31:16.659Z,100672.41
2023-05-01T21:33:48.887Z,100674.13
2023-05-01T21:36:18.281Z,100671.31
2023-05-01T21:38:46.134Z,100672.03
2023-05-01T21:41:15.583Z,100677.13
2023-05-01T21:43:47.373Z,100679.53
2023-05-01T21:46:23.997Z,100676.69
2023-05-01T21:48:51.768Z,100675.28
2023-05-01T21:51:19.169Z,100676.28
2023-05-01T21:53:48.447Z,100680.66
2023-05-01T21:56:15.847Z,100681.06
2023-05-01T21:58:51.116Z,100674.56
2023-05-01T22:01:25.711Z,100690.28
2023-05-01T22:03:54.984Z,100695.63
2023-05-01T22:06:24.244Z,100690.97
2023-05-01T22:08:51.939Z,100686.03
2023-05-01T22:11:20.148Z,100673.84
2023-05-01T22:13:46.835Z,100684.59
2023-05-01T22:16:14.010Z,100683.88
2023-05-01T22:18:43.813Z,100684.59
2023-05-01T22:21:13.619Z,100697.50
2023-05-01T22:23:46.170Z,100688.16
2023-05-01T22:26:12.945Z,100690.59
2023-05-01T22:28:50.293Z,100696.00
2023-05-01T22:31:20.184Z,100693.72
2023-05-01T22:33:48.235Z,100704.34
2023-05-01T22:36:15.323Z,100701.94
2023-05-01T22:38:42.716Z,100696.44
2023-05-01T22:41:09.465Z,100704.06
2023-05-01T22:43:41.916Z,100698.31
2023-05-01T22:46:08.765Z,100714.72
2023-05-01T22:48:40.846Z,100704.69
2023-05-01T22:51:07.621Z,100711.19
2023-05-01T22:53:34.356Z,100707.31
2023-05-01T22:56:01.176Z,100713.44
2023-05-01T22:58:27.887Z,100710.44
2023-05-01T23:00:57.668Z,100723.47
2023-05-01T23:03:24.652Z,100718.94
2023-05-01T23:05:58.582Z,100718.38
2023-05-01T23:08:25.894Z,100721.91
2023-05-01T23:10:52.742Z,100720.34
2023-05-01T23:13:23.537Z,100720.94
2023-05-01T23:15:57.590Z,100715.00
2023-05-01T23:18:38.561Z,100720.41
2023-05-01T23:21:18.396Z,100716.84
2023-05-01T23:23:52.204Z,100722.09
2023-05-01T23:26:30.847Z,100721.38
2023-05-01T23:28:57.728Z,100719.09
2023-05-01T23:31:27.933Z,100724.47
2023-05-01T23:34:01.276Z,100719.50
2023-05-01T23:36:32.915Z,100714.53
2023-05-01T23:38:59.644Z,100723.88
2023-05-01T23:41:26.778Z,100716.22
2023-05-01T23:43:56.552Z,100715.47
2023-05-01T23:46:26.200Z,100713.47
2023-05-01T23:48:58.352Z,100705.97
2023-05-01T23:51:28.072Z,100712.59
2023-05-01T23:54:01.413Z,100710.91
2023-05-01T23:56:28.175Z,100711.63
2023-05-01T23:58:58.180Z,100707.06
